UAE654 OMDB-VCBI
Flight info
| Callsign | UAE654 |
|---|---|
| Flight time | 3h 54m |
| Altitude | 41000 |
| Route | ANVIX L223 TARDI N629 GIDAN P570 EMURU M300 VASTU P895 BIKOK BIKOK1A |
| Aircraft | A359/H-SDE2E3GHIJ3J4J5LM1ORWXY/LB1D1 |
Departure
| Time | 2026-05-06 23:06 |
|---|---|
| Airport | Dubai International Airport (OMDB) |
Arrival
| Time | 2026-05-07 03:01 |
|---|---|
| Airport | Bandaranaike International Colombo Airport (VCBI) |
| Time | Latitude | Longitude | Altitude | Speed | Heading |
|---|---|---|---|---|---|
| 2026-05-06 22:41 | 25.25412 | 55.35337 | 28 ft | 0 kts | 211° |
| 2026-05-06 22:55 | 25.25412 | 55.35338 | 28 ft | 1 kts | 211° |
| 2026-05-06 22:55 | 25.25432 | 55.35351 | 27 ft | 4 kts | 211° |
| 2026-05-06 22:55 | 25.25455 | 55.35367 | 27 ft | 4 kts | 211° |
| 2026-05-06 22:55 | 25.25477 | 55.35382 | 26 ft | 2 kts | 211° |
| 2026-05-06 22:56 | 25.25494 | 55.35397 | 26 ft | 4 kts | 265° |
| 2026-05-06 22:56 | 25.25485 | 55.35418 | 24 ft | 4 kts | 311° |
| 2026-05-06 22:56 | 25.25473 | 55.35436 | 25 ft | 1 kts | 295° |
| 2026-05-06 22:56 | 25.25472 | 55.35439 | 25 ft | 0 kts | 295° |
| 2026-05-06 22:59 | 25.25480 | 55.35421 | 26 ft | 9 kts | 295° |
| 2026-05-06 22:59 | 25.25539 | 55.35306 | 28 ft | 24 kts | 300° |
| 2026-05-06 23:00 | 25.25628 | 55.35160 | 28 ft | 20 kts | 318° |
| 2026-05-06 23:00 | 25.25729 | 55.35191 | 28 ft | 16 kts | 33° |
| 2026-05-06 23:00 | 25.25831 | 55.35260 | 28 ft | 18 kts | 31° |
| 2026-05-06 23:00 | 25.25940 | 55.35337 | 28 ft | 20 kts | 39° |
| 2026-05-06 23:01 | 25.25993 | 55.35468 | 28 ft | 19 kts | 88° |
| 2026-05-06 23:01 | 25.25946 | 55.35610 | 28 ft | 21 kts | 121° |
| 2026-05-06 23:01 | 25.25867 | 55.35750 | 28 ft | 22 kts | 122° |
| 2026-05-06 23:01 | 25.25781 | 55.35902 | 28 ft | 24 kts | 123° |
| 2026-05-06 23:02 | 25.25692 | 55.36065 | 28 ft | 25 kts | 121° |
| 2026-05-06 23:02 | 25.25599 | 55.36233 | 28 ft | 26 kts | 121° |
| 2026-05-06 23:02 | 25.25500 | 55.36408 | 28 ft | 28 kts | 121° |
| 2026-05-06 23:02 | 25.25398 | 55.36594 | 28 ft | 29 kts | 121° |
| 2026-05-06 23:03 | 25.25292 | 55.36785 | 28 ft | 30 kts | 122° |
| 2026-05-06 23:03 | 25.25183 | 55.36988 | 28 ft | 31 kts | 122° |
| 2026-05-06 23:03 | 25.25068 | 55.37192 | 28 ft | 31 kts | 121° |
| 2026-05-06 23:03 | 25.24959 | 55.37391 | 28 ft | 29 kts | 122° |
| 2026-05-06 23:04 | 25.24852 | 55.37583 | 28 ft | 30 kts | 121° |
| 2026-05-06 23:04 | 25.24744 | 55.37779 | 28 ft | 28 kts | 121° |
| 2026-05-06 23:04 | 25.24679 | 55.37927 | 28 ft | 20 kts | 87° |
| 2026-05-06 23:04 | 25.24775 | 55.38019 | 28 ft | 18 kts | 14° |
| 2026-05-06 23:05 | 25.24825 | 55.37989 | 28 ft | 0 kts | 300° |
| 2026-05-06 23:05 | 25.24830 | 55.37980 | 28 ft | 8 kts | 300° |
| 2026-05-06 23:05 | 25.24974 | 55.37716 | 28 ft | 76 kts | 301° |
| 2026-05-06 23:05 | 25.25370 | 55.37009 | 29 ft | 138 kts | 301° |
| 2026-05-06 23:06 | 25.25959 | 55.35948 | 228 ft | 174 kts | 303° |
| 2026-05-06 23:06 | 25.26614 | 55.34828 | 892 ft | 177 kts | 304° |
| 2026-05-06 23:06 | 25.27314 | 55.33651 | 1371 ft | 192 kts | 301° |
| 2026-05-06 23:06 | 25.28034 | 55.32319 | 1628 ft | 211 kts | 300° |
| 2026-05-06 23:07 | 25.28795 | 55.30860 | 1988 ft | 226 kts | 296° |
| 2026-05-06 23:07 | 25.29183 | 55.29166 | 2513 ft | 232 kts | 267° |
| 2026-05-06 23:07 | 25.28774 | 55.27478 | 3186 ft | 232 kts | 246° |
| 2026-05-06 23:07 | 25.28089 | 55.25862 | 3911 ft | 233 kts | 244° |
| 2026-05-06 23:08 | 25.27381 | 55.24254 | 4668 ft | 233 kts | 244° |
| 2026-05-06 23:08 | 25.26677 | 55.22640 | 5365 ft | 234 kts | 244° |
| 2026-05-06 23:08 | 25.25972 | 55.21005 | 6037 ft | 237 kts | 244° |
| 2026-05-06 23:08 | 25.25261 | 55.19349 | 6615 ft | 240 kts | 243° |
| 2026-05-06 23:09 | 25.24314 | 55.17810 | 6932 ft | 244 kts | 224° |
| 2026-05-06 23:09 | 25.22839 | 55.16863 | 7195 ft | 255 kts | 195° |
| 2026-05-06 23:09 | 25.21022 | 55.16714 | 7437 ft | 278 kts | 176° |
| 2026-05-06 23:09 | 25.19104 | 55.17278 | 7753 ft | 295 kts | 151° |
| 2026-05-06 23:10 | 25.17622 | 55.18846 | 8370 ft | 300 kts | 122° |
| 2026-05-06 23:10 | 25.16599 | 55.20863 | 9135 ft | 302 kts | 116° |
| 2026-05-06 23:10 | 25.15638 | 55.22938 | 9907 ft | 304 kts | 116° |
| 2026-05-06 23:10 | 25.14674 | 55.25003 | 10769 ft | 300 kts | 115° |
| 2026-05-06 23:11 | 25.13716 | 55.27029 | 11690 ft | 297 kts | 115° |
| 2026-05-06 23:11 | 25.12754 | 55.29052 | 12508 ft | 298 kts | 115° |
| 2026-05-06 23:11 | 25.11783 | 55.31082 | 13319 ft | 300 kts | 115° |
| 2026-05-06 23:11 | 25.10804 | 55.33124 | 14028 ft | 302 kts | 115° |
| 2026-05-06 23:12 | 25.09873 | 55.35180 | 14534 ft | 305 kts | 112° |
| 2026-05-06 23:12 | 25.09005 | 55.37328 | 14776 ft | 308 kts | 111° |
| 2026-05-06 23:12 | 25.08134 | 55.39508 | 15156 ft | 314 kts | 111° |
| 2026-05-06 23:12 | 25.07240 | 55.41719 | 15824 ft | 317 kts | 112° |
| 2026-05-06 23:13 | 25.06349 | 55.43980 | 16310 ft | 329 kts | 111° |
| 2026-05-06 23:13 | 25.05445 | 55.46366 | 16572 ft | 346 kts | 111° |
| 2026-05-06 23:13 | 25.04495 | 55.48870 | 16816 ft | 362 kts | 111° |
| 2026-05-06 23:13 | 25.03496 | 55.51483 | 17060 ft | 377 kts | 112° |
| 2026-05-06 23:14 | 25.02450 | 55.54193 | 17286 ft | 391 kts | 112° |
| 2026-05-06 23:14 | 25.01205 | 55.56859 | 17561 ft | 401 kts | 119° |
| 2026-05-06 23:14 | 24.99781 | 55.59530 | 18022 ft | 407 kts | 120° |
| 2026-05-06 23:14 | 24.98319 | 55.62222 | 18463 ft | 411 kts | 120° |
| 2026-05-06 23:15 | 24.96848 | 55.64933 | 18900 ft | 415 kts | 120° |
| 2026-05-06 23:15 | 24.95363 | 55.67673 | 19353 ft | 418 kts | 121° |
| 2026-05-06 23:15 | 24.93802 | 55.70394 | 19788 ft | 422 kts | 124° |
| 2026-05-06 23:15 | 24.92093 | 55.73035 | 20262 ft | 425 kts | 126° |
| 2026-05-06 23:16 | 24.90341 | 55.75676 | 20730 ft | 429 kts | 126° |
| 2026-05-06 23:16 | 24.88573 | 55.78334 | 21198 ft | 432 kts | 127° |
| 2026-05-06 23:16 | 24.86814 | 55.80979 | 21636 ft | 436 kts | 127° |
| 2026-05-06 23:16 | 24.85015 | 55.83688 | 22071 ft | 440 kts | 127° |
| 2026-05-06 23:17 | 24.83197 | 55.86422 | 22515 ft | 444 kts | 127° |
| 2026-05-06 23:17 | 24.81348 | 55.89155 | 22993 ft | 446 kts | 128° |
| 2026-05-06 23:17 | 24.79482 | 55.91896 | 23466 ft | 449 kts | 128° |
| 2026-05-06 23:17 | 24.77462 | 55.94535 | 23805 ft | 452 kts | 134° |
| 2026-05-06 23:18 | 24.75254 | 55.97014 | 24174 ft | 455 kts | 137° |
| 2026-05-06 23:18 | 24.72947 | 55.99417 | 24554 ft | 458 kts | 139° |
| 2026-05-06 23:18 | 24.70590 | 56.01793 | 24968 ft | 462 kts | 139° |
| 2026-05-06 23:18 | 24.68236 | 56.04148 | 25379 ft | 465 kts | 139° |
| 2026-05-06 23:19 | 24.65843 | 56.06559 | 25791 ft | 469 kts | 139° |
| 2026-05-06 23:19 | 24.63433 | 56.09004 | 26222 ft | 473 kts | 139° |
| 2026-05-06 23:19 | 24.61015 | 56.11473 | 26638 ft | 477 kts | 139° |
| 2026-05-06 23:19 | 24.58586 | 56.13972 | 27057 ft | 481 kts | 139° |
| 2026-05-06 23:20 | 24.56268 | 56.16653 | 27477 ft | 486 kts | 134° |
| 2026-05-06 23:20 | 24.54011 | 56.19431 | 27917 ft | 490 kts | 134° |
| 2026-05-06 23:20 | 24.51760 | 56.22265 | 28298 ft | 495 kts | 133° |
| 2026-05-06 23:20 | 24.49505 | 56.25137 | 28705 ft | 498 kts | 133° |
| 2026-05-06 23:21 | 24.47267 | 56.27999 | 29083 ft | 502 kts | 133° |
| 2026-05-06 23:21 | 24.44987 | 56.30915 | 29450 ft | 505 kts | 133° |
| 2026-05-06 23:21 | 24.42689 | 56.33848 | 29818 ft | 508 kts | 133° |
| 2026-05-06 23:21 | 24.40377 | 56.36791 | 30107 ft | 511 kts | 133° |
| 2026-05-06 23:22 | 24.38045 | 56.39756 | 30384 ft | 514 kts | 133° |
| 2026-05-06 23:22 | 24.35704 | 56.42728 | 30693 ft | 517 kts | 133° |
| 2026-05-06 23:22 | 24.33346 | 56.45720 | 30984 ft | 519 kts | 133° |
| 2026-05-06 23:22 | 24.30976 | 56.48725 | 31268 ft | 522 kts | 133° |
| 2026-05-06 23:23 | 24.28614 | 56.51750 | 31549 ft | 525 kts | 132° |
| 2026-05-06 23:23 | 24.26404 | 56.54885 | 31820 ft | 528 kts | 129° |
| 2026-05-06 23:23 | 24.24256 | 56.58171 | 32077 ft | 531 kts | 127° |
| 2026-05-06 23:23 | 24.22137 | 56.61497 | 32353 ft | 533 kts | 127° |
| 2026-05-06 23:24 | 24.20015 | 56.64824 | 32748 ft | 532 kts | 127° |
| 2026-05-06 23:24 | 24.17881 | 56.68132 | 33164 ft | 531 kts | 128° |
| 2026-05-06 23:24 | 24.15734 | 56.71418 | 33544 ft | 530 kts | 128° |
| 2026-05-06 23:24 | 24.13574 | 56.74688 | 33882 ft | 530 kts | 128° |
| 2026-05-06 23:25 | 24.11411 | 56.77943 | 34216 ft | 528 kts | 128° |
| 2026-05-06 23:25 | 24.09247 | 56.81187 | 34559 ft | 527 kts | 128° |
| 2026-05-06 23:25 | 24.07119 | 56.84372 | 34897 ft | 525 kts | 128° |
| 2026-05-06 23:25 | 24.04964 | 56.87596 | 35249 ft | 523 kts | 128° |
| 2026-05-06 23:26 | 24.02824 | 56.90802 | 35593 ft | 522 kts | 128° |
| 2026-05-06 23:26 | 24.00684 | 56.94004 | 35914 ft | 520 kts | 128° |
| 2026-05-06 23:26 | 23.98548 | 56.97193 | 36209 ft | 519 kts | 129° |
| 2026-05-06 23:26 | 23.96412 | 57.00377 | 36520 ft | 518 kts | 129° |
| 2026-05-06 23:27 | 23.94282 | 57.03551 | 36818 ft | 517 kts | 129° |
| 2026-05-06 23:27 | 23.92157 | 57.06717 | 37119 ft | 516 kts | 129° |
| 2026-05-06 23:27 | 23.90064 | 57.09835 | 37421 ft | 515 kts | 129° |
| 2026-05-06 23:27 | 23.87951 | 57.12985 | 37706 ft | 514 kts | 129° |
| 2026-05-06 23:28 | 23.85840 | 57.16132 | 37977 ft | 513 kts | 128° |
| 2026-05-06 23:28 | 23.83734 | 57.19265 | 38285 ft | 511 kts | 129° |
| 2026-05-06 23:28 | 23.81633 | 57.22388 | 38564 ft | 510 kts | 129° |
| 2026-05-06 23:28 | 23.79534 | 57.25504 | 38769 ft | 509 kts | 129° |
| 2026-05-06 23:29 | 23.77438 | 57.28615 | 38953 ft | 508 kts | 129° |
| 2026-05-06 23:29 | 23.75348 | 57.31716 | 39141 ft | 507 kts | 129° |
| 2026-05-06 23:29 | 23.73258 | 57.34816 | 39353 ft | 507 kts | 129° |
| 2026-05-06 23:29 | 23.71167 | 57.37908 | 39541 ft | 506 kts | 129° |
| 2026-05-06 23:30 | 23.69052 | 57.40907 | 39679 ft | 505 kts | 131° |
| 2026-05-06 23:30 | 23.66865 | 57.43900 | 39847 ft | 504 kts | 131° |
| 2026-05-06 23:30 | 23.64664 | 57.46874 | 40060 ft | 502 kts | 131° |
| 2026-05-06 23:30 | 23.62477 | 57.49828 | 40275 ft | 500 kts | 131° |
| 2026-05-06 23:31 | 23.60297 | 57.52782 | 40434 ft | 500 kts | 131° |
| 2026-05-06 23:31 | 23.58125 | 57.55741 | 40610 ft | 500 kts | 131° |
| 2026-05-06 23:31 | 23.55959 | 57.58700 | 40735 ft | 499 kts | 131° |
| 2026-05-06 23:32 | 23.51662 | 57.64589 | 40810 ft | 499 kts | 131° |
| 2026-05-06 23:32 | 23.47341 | 57.70514 | 40843 ft | 499 kts | 131° |
| 2026-05-06 23:33 | 23.43015 | 57.76430 | 40828 ft | 499 kts | 131° |
| 2026-05-06 23:33 | 23.38685 | 57.82333 | 40837 ft | 499 kts | 131° |
| 2026-05-06 23:34 | 23.34381 | 57.88196 | 40838 ft | 499 kts | 131° |
| 2026-05-06 23:34 | 23.30049 | 57.94089 | 40841 ft | 499 kts | 131° |
| 2026-05-06 23:35 | 23.25712 | 57.99988 | 40840 ft | 499 kts | 131° |
| 2026-05-06 23:35 | 23.21511 | 58.06000 | 40850 ft | 500 kts | 127° |
| 2026-05-06 23:36 | 23.17635 | 58.12286 | 40850 ft | 500 kts | 126° |
| 2026-05-06 23:36 | 23.13777 | 58.18582 | 40859 ft | 501 kts | 126° |
| 2026-05-06 23:37 | 23.09889 | 58.24793 | 40859 ft | 500 kts | 127° |
| 2026-05-06 23:37 | 23.05945 | 58.31021 | 40867 ft | 501 kts | 127° |
| 2026-05-06 23:38 | 23.01627 | 58.36902 | 40860 ft | 495 kts | 139° |
| 2026-05-06 23:38 | 22.96161 | 58.41339 | 40873 ft | 490 kts | 150° |
| 2026-05-06 23:39 | 22.90391 | 58.45185 | 40879 ft | 490 kts | 152° |
| 2026-05-06 23:39 | 22.84546 | 58.48979 | 40872 ft | 490 kts | 152° |
| 2026-05-06 23:40 | 22.78706 | 58.52804 | 40876 ft | 490 kts | 152° |
| 2026-05-06 23:40 | 22.72883 | 58.56649 | 40876 ft | 490 kts | 151° |
| 2026-05-06 23:41 | 22.67107 | 58.60469 | 40870 ft | 490 kts | 151° |
| 2026-05-06 23:41 | 22.61293 | 58.64319 | 40870 ft | 490 kts | 151° |
| 2026-05-06 23:42 | 22.55472 | 58.68155 | 40867 ft | 490 kts | 151° |
| 2026-05-06 23:42 | 22.49649 | 58.71989 | 40867 ft | 490 kts | 151° |
| 2026-05-06 23:43 | 22.43826 | 58.75822 | 40868 ft | 490 kts | 151° |
| 2026-05-06 23:43 | 22.38043 | 58.79625 | 40863 ft | 490 kts | 151° |
| 2026-05-06 23:44 | 22.32218 | 58.83452 | 40857 ft | 490 kts | 151° |
| 2026-05-06 23:44 | 22.26404 | 58.87285 | 40855 ft | 490 kts | 149° |
| 2026-05-06 23:45 | 22.21213 | 58.92071 | 40867 ft | 494 kts | 134° |
| 2026-05-06 23:45 | 22.16735 | 58.97639 | 40856 ft | 495 kts | 132° |
| 2026-05-06 23:46 | 22.12351 | 59.03374 | 40854 ft | 495 kts | 131° |
| 2026-05-06 23:46 | 22.07973 | 59.09107 | 40846 ft | 495 kts | 132° |
| 2026-05-06 23:47 | 22.03574 | 59.14817 | 40845 ft | 495 kts | 132° |
| 2026-05-06 23:47 | 21.99193 | 59.20478 | 40835 ft | 495 kts | 132° |
| 2026-05-06 23:48 | 21.94783 | 59.26167 | 40829 ft | 495 kts | 132° |
| 2026-05-06 23:48 | 21.90367 | 59.31859 | 40830 ft | 495 kts | 132° |
| 2026-05-06 23:49 | 21.85952 | 59.37543 | 40817 ft | 495 kts | 132° |
| 2026-05-06 23:49 | 21.81538 | 59.43223 | 40817 ft | 494 kts | 132° |
| 2026-05-06 23:50 | 21.77158 | 59.48852 | 40810 ft | 494 kts | 132° |
| 2026-05-06 23:50 | 21.70539 | 59.57348 | 40810 ft | 494 kts | 132° |
| 2026-05-06 23:51 | 21.66122 | 59.63009 | 40810 ft | 494 kts | 132° |
| 2026-05-06 23:51 | 21.61706 | 59.68662 | 40803 ft | 494 kts | 132° |
| 2026-05-06 23:52 | 21.57317 | 59.74277 | 40810 ft | 494 kts | 132° |
| 2026-05-06 23:52 | 21.52897 | 59.79921 | 40810 ft | 494 kts | 133° |
| 2026-05-06 23:53 | 21.48464 | 59.85551 | 40809 ft | 494 kts | 133° |
| 2026-05-06 23:53 | 21.44024 | 59.91176 | 40804 ft | 494 kts | 132° |
| 2026-05-06 23:54 | 21.39615 | 59.96762 | 40819 ft | 494 kts | 133° |
| 2026-05-06 23:54 | 21.35177 | 60.02381 | 40805 ft | 493 kts | 133° |
| 2026-05-06 23:55 | 21.30741 | 60.07993 | 40810 ft | 493 kts | 133° |
| 2026-05-06 23:55 | 21.26306 | 60.13600 | 40804 ft | 494 kts | 132° |
| 2026-05-06 23:56 | 21.21897 | 60.19177 | 40812 ft | 493 kts | 132° |
| 2026-05-06 23:56 | 21.17466 | 60.24787 | 40805 ft | 493 kts | 133° |
| 2026-05-06 23:57 | 21.13034 | 60.30392 | 40811 ft | 493 kts | 132° |
| 2026-05-06 23:57 | 21.08607 | 60.35985 | 40807 ft | 492 kts | 132° |
| 2026-05-06 23:58 | 21.04207 | 60.41537 | 40805 ft | 492 kts | 133° |
| 2026-05-06 23:58 | 20.99776 | 60.47123 | 40806 ft | 492 kts | 133° |
| 2026-05-06 23:59 | 20.95342 | 60.52706 | 40814 ft | 493 kts | 132° |
| 2026-05-06 23:59 | 20.90905 | 60.58287 | 40807 ft | 492 kts | 132° |
| 2026-05-07 00:00 | 20.86501 | 60.63826 | 40817 ft | 492 kts | 133° |
| 2026-05-07 00:00 | 20.82781 | 60.68497 | 40815 ft | 492 kts | 133° |
| 2026-05-07 00:01 | 20.77625 | 60.74963 | 40824 ft | 492 kts | 132° |
| 2026-05-07 00:01 | 20.73180 | 60.80532 | 40814 ft | 493 kts | 132° |
| 2026-05-07 00:02 | 20.68765 | 60.86060 | 40810 ft | 492 kts | 132° |
| 2026-05-07 00:02 | 20.64323 | 60.91616 | 40818 ft | 492 kts | 133° |
| 2026-05-07 00:03 | 20.60189 | 60.97458 | 40811 ft | 494 kts | 126° |
| 2026-05-07 00:03 | 20.56443 | 61.03608 | 40826 ft | 494 kts | 125° |
| 2026-05-07 00:04 | 20.52757 | 61.09806 | 40810 ft | 495 kts | 124° |
| 2026-05-07 00:04 | 20.49099 | 61.15958 | 40821 ft | 495 kts | 124° |
| 2026-05-07 00:05 | 20.45400 | 61.22146 | 40812 ft | 494 kts | 124° |
| 2026-05-07 00:05 | 20.41703 | 61.28319 | 40823 ft | 494 kts | 124° |
| 2026-05-07 00:06 | 20.37999 | 61.34493 | 40828 ft | 494 kts | 124° |
| 2026-05-07 00:06 | 20.34322 | 61.40619 | 40817 ft | 494 kts | 125° |
| 2026-05-07 00:07 | 20.30614 | 61.46788 | 40821 ft | 494 kts | 124° |
| 2026-05-07 00:07 | 20.26907 | 61.52950 | 40817 ft | 494 kts | 125° |
| 2026-05-07 00:08 | 20.23196 | 61.59110 | 40808 ft | 494 kts | 124° |
| 2026-05-07 00:08 | 20.19512 | 61.65220 | 40824 ft | 494 kts | 124° |
| 2026-05-07 00:09 | 20.15799 | 61.71373 | 40822 ft | 494 kts | 124° |
| 2026-05-07 00:09 | 20.12714 | 61.76483 | 40826 ft | 494 kts | 124° |
| 2026-05-07 00:10 | 20.08995 | 61.82630 | 40831 ft | 493 kts | 124° |
| 2026-05-07 00:10 | 20.05279 | 61.88769 | 40818 ft | 494 kts | 124° |
| 2026-05-07 00:11 | 20.00954 | 61.95904 | 40819 ft | 493 kts | 124° |
| 2026-05-07 00:11 | 19.97235 | 62.02033 | 40828 ft | 494 kts | 124° |
| 2026-05-07 00:12 | 19.94140 | 62.07128 | 40820 ft | 493 kts | 124° |
| 2026-05-07 00:12 | 19.90417 | 62.13252 | 40829 ft | 494 kts | 124° |
| 2026-05-07 00:13 | 19.86692 | 62.19375 | 40827 ft | 493 kts | 124° |
| 2026-05-07 00:13 | 19.82988 | 62.25455 | 40837 ft | 494 kts | 124° |
| 2026-05-07 00:14 | 19.79260 | 62.31569 | 40829 ft | 493 kts | 124° |
| 2026-05-07 00:14 | 19.75526 | 62.37687 | 40839 ft | 494 kts | 124° |
| 2026-05-07 00:15 | 19.71790 | 62.43800 | 40840 ft | 493 kts | 124° |
| 2026-05-07 00:15 | 19.68052 | 62.49910 | 40840 ft | 494 kts | 124° |
| 2026-05-07 00:16 | 19.64336 | 62.55980 | 40831 ft | 493 kts | 124° |
| 2026-05-07 00:16 | 19.60597 | 62.62084 | 40827 ft | 494 kts | 124° |
| 2026-05-07 00:17 | 19.56855 | 62.68184 | 40837 ft | 493 kts | 124° |
| 2026-05-07 00:17 | 19.53110 | 62.74283 | 40832 ft | 494 kts | 124° |
| 2026-05-07 00:18 | 19.49390 | 62.80333 | 40834 ft | 493 kts | 124° |
| 2026-05-07 00:18 | 19.45643 | 62.86423 | 40831 ft | 493 kts | 124° |
| 2026-05-07 00:19 | 19.41895 | 62.92507 | 40834 ft | 493 kts | 124° |
| 2026-05-07 00:19 | 19.38147 | 62.98587 | 40832 ft | 493 kts | 124° |
| 2026-05-07 00:20 | 19.34422 | 63.04622 | 40834 ft | 493 kts | 124° |
| 2026-05-07 00:20 | 19.30669 | 63.10698 | 40830 ft | 493 kts | 124° |
| 2026-05-07 00:21 | 19.26917 | 63.16764 | 40840 ft | 492 kts | 124° |
| 2026-05-07 00:21 | 19.23164 | 63.22826 | 40837 ft | 492 kts | 124° |
| 2026-05-07 00:22 | 19.19410 | 63.28883 | 40846 ft | 492 kts | 125° |
| 2026-05-07 00:22 | 19.15677 | 63.34901 | 40841 ft | 492 kts | 124° |
| 2026-05-07 00:23 | 19.11922 | 63.40948 | 40846 ft | 492 kts | 124° |
| 2026-05-07 00:23 | 19.08161 | 63.47000 | 40844 ft | 492 kts | 124° |
| 2026-05-07 00:24 | 19.04402 | 63.53043 | 40848 ft | 491 kts | 124° |
| 2026-05-07 00:24 | 19.00671 | 63.59034 | 40836 ft | 491 kts | 124° |
| 2026-05-07 00:25 | 18.96917 | 63.65065 | 40845 ft | 491 kts | 125° |
| 2026-05-07 00:25 | 18.93158 | 63.71091 | 40849 ft | 491 kts | 125° |
| 2026-05-07 00:26 | 18.89395 | 63.77117 | 40850 ft | 491 kts | 125° |
| 2026-05-07 00:26 | 18.85659 | 63.83098 | 40848 ft | 491 kts | 124° |
| 2026-05-07 00:27 | 18.81896 | 63.89116 | 40848 ft | 491 kts | 124° |
| 2026-05-07 00:27 | 18.78136 | 63.95122 | 40844 ft | 490 kts | 124° |
| 2026-05-07 00:28 | 18.74378 | 64.01119 | 40849 ft | 490 kts | 125° |
| 2026-05-07 00:28 | 18.70645 | 64.07072 | 40847 ft | 490 kts | 125° |
| 2026-05-07 00:29 | 18.66883 | 64.13065 | 40849 ft | 490 kts | 125° |
| 2026-05-07 00:30 | 18.59355 | 64.25040 | 40846 ft | 490 kts | 124° |
| 2026-05-07 00:30 | 18.55614 | 64.30983 | 40840 ft | 489 kts | 124° |
| 2026-05-07 00:31 | 18.51853 | 64.36953 | 40847 ft | 489 kts | 125° |
| 2026-05-07 00:31 | 18.48090 | 64.42921 | 40848 ft | 489 kts | 125° |
| 2026-05-07 00:32 | 18.44323 | 64.48887 | 40844 ft | 489 kts | 124° |
| 2026-05-07 00:32 | 18.40582 | 64.54807 | 40846 ft | 489 kts | 125° |
| 2026-05-07 00:33 | 18.36814 | 64.60765 | 40848 ft | 489 kts | 125° |
| 2026-05-07 00:33 | 18.33044 | 64.66720 | 40842 ft | 489 kts | 125° |
| 2026-05-07 00:34 | 18.29275 | 64.72668 | 40843 ft | 488 kts | 124° |
| 2026-05-07 00:34 | 18.25509 | 64.78607 | 40848 ft | 488 kts | 125° |
| 2026-05-07 00:35 | 18.21768 | 64.84501 | 40851 ft | 488 kts | 125° |
| 2026-05-07 00:35 | 18.18001 | 64.90430 | 40851 ft | 488 kts | 125° |
| 2026-05-07 00:36 | 18.14233 | 64.96356 | 40850 ft | 488 kts | 124° |
| 2026-05-07 00:36 | 18.10461 | 65.02284 | 40848 ft | 488 kts | 125° |
| 2026-05-07 00:37 | 18.06712 | 65.08171 | 40849 ft | 488 kts | 125° |
| 2026-05-07 00:37 | 18.02939 | 65.14090 | 40848 ft | 487 kts | 125° |
| 2026-05-07 00:38 | 17.99167 | 65.20000 | 40845 ft | 487 kts | 125° |
| 2026-05-07 00:38 | 17.95392 | 65.25907 | 40848 ft | 487 kts | 125° |
| 2026-05-07 00:39 | 17.91642 | 65.31774 | 40847 ft | 487 kts | 125° |
| 2026-05-07 00:39 | 17.87864 | 65.37681 | 40845 ft | 487 kts | 125° |
| 2026-05-07 00:40 | 17.84085 | 65.43581 | 40843 ft | 487 kts | 125° |
| 2026-05-07 00:40 | 17.80302 | 65.49480 | 40839 ft | 487 kts | 125° |
| 2026-05-07 00:41 | 17.76525 | 65.55365 | 40843 ft | 486 kts | 125° |
| 2026-05-07 00:41 | 17.72773 | 65.61201 | 40841 ft | 486 kts | 125° |
| 2026-05-07 00:42 | 17.68996 | 65.67074 | 40846 ft | 486 kts | 125° |
| 2026-05-07 00:42 | 17.65212 | 65.72954 | 40848 ft | 486 kts | 125° |
| 2026-05-07 00:43 | 17.61428 | 65.78831 | 40843 ft | 486 kts | 125° |
| 2026-05-07 00:43 | 17.57745 | 65.84722 | 40841 ft | 486 kts | 124° |
| 2026-05-07 00:44 | 17.54100 | 65.90691 | 40844 ft | 486 kts | 123° |
| 2026-05-07 00:44 | 17.50450 | 65.96647 | 40837 ft | 485 kts | 124° |
| 2026-05-07 00:45 | 17.46788 | 66.02586 | 40844 ft | 485 kts | 124° |
| 2026-05-07 00:45 | 17.43142 | 66.08482 | 40839 ft | 485 kts | 124° |
| 2026-05-07 00:46 | 17.39470 | 66.14412 | 40837 ft | 485 kts | 124° |
| 2026-05-07 00:46 | 17.35796 | 66.20343 | 40836 ft | 485 kts | 124° |
| 2026-05-07 00:47 | 17.32121 | 66.26272 | 40840 ft | 485 kts | 124° |
| 2026-05-07 00:47 | 17.28469 | 66.32159 | 40838 ft | 486 kts | 124° |
| 2026-05-07 00:48 | 17.24789 | 66.38085 | 40840 ft | 486 kts | 124° |
| 2026-05-07 00:48 | 17.21108 | 66.44008 | 40836 ft | 486 kts | 124° |
| 2026-05-07 00:49 | 17.17423 | 66.49932 | 40838 ft | 486 kts | 124° |
| 2026-05-07 00:49 | 17.13761 | 66.55816 | 40836 ft | 486 kts | 124° |
| 2026-05-07 00:50 | 17.10074 | 66.61733 | 40838 ft | 486 kts | 124° |
| 2026-05-07 00:50 | 17.06381 | 66.67654 | 40838 ft | 486 kts | 124° |
| 2026-05-07 00:51 | 17.02686 | 66.73573 | 40836 ft | 486 kts | 124° |
| 2026-05-07 00:51 | 16.99015 | 66.79448 | 40836 ft | 486 kts | 124° |
| 2026-05-07 00:52 | 16.95323 | 66.85352 | 40835 ft | 485 kts | 124° |
| 2026-05-07 00:52 | 16.91630 | 66.91252 | 40837 ft | 485 kts | 124° |
| 2026-05-07 00:53 | 16.87931 | 66.97157 | 40837 ft | 486 kts | 124° |
| 2026-05-07 00:53 | 16.84255 | 67.03023 | 40840 ft | 486 kts | 124° |
| 2026-05-07 00:54 | 16.80550 | 67.08927 | 40835 ft | 486 kts | 124° |
| 2026-05-07 00:54 | 16.76846 | 67.14827 | 40837 ft | 486 kts | 124° |
| 2026-05-07 00:55 | 16.73140 | 67.20722 | 40837 ft | 485 kts | 124° |
| 2026-05-07 00:55 | 16.69437 | 67.26611 | 40838 ft | 485 kts | 124° |
| 2026-05-07 00:56 | 16.65759 | 67.32453 | 40837 ft | 485 kts | 124° |
| 2026-05-07 00:56 | 16.62054 | 67.38334 | 40840 ft | 485 kts | 124° |
| 2026-05-07 00:57 | 16.58346 | 67.44214 | 40840 ft | 485 kts | 124° |
| 2026-05-07 00:57 | 16.54636 | 67.50095 | 40836 ft | 485 kts | 124° |
| 2026-05-07 00:58 | 16.50951 | 67.55930 | 40835 ft | 485 kts | 124° |
| 2026-05-07 00:58 | 16.47233 | 67.61811 | 40840 ft | 486 kts | 125° |
| 2026-05-07 00:59 | 16.41666 | 67.70610 | 40834 ft | 485 kts | 124° |
| 2026-05-07 01:00 | 16.37980 | 67.76432 | 40836 ft | 484 kts | 124° |
| 2026-05-07 01:00 | 16.34266 | 67.82289 | 40837 ft | 485 kts | 124° |
| 2026-05-07 01:01 | 16.30551 | 67.88146 | 40840 ft | 485 kts | 125° |
| 2026-05-07 01:01 | 16.26834 | 67.94000 | 40834 ft | 485 kts | 124° |
| 2026-05-07 01:02 | 16.23158 | 67.99823 | 40833 ft | 485 kts | 124° |
| 2026-05-07 01:02 | 16.19472 | 68.05694 | 40833 ft | 484 kts | 124° |
| 2026-05-07 01:03 | 16.15791 | 68.11551 | 40835 ft | 483 kts | 124° |
| 2026-05-07 01:03 | 16.12113 | 68.17390 | 40836 ft | 483 kts | 124° |
| 2026-05-07 01:04 | 16.08452 | 68.23195 | 40830 ft | 483 kts | 124° |
| 2026-05-07 01:04 | 16.04762 | 68.29041 | 40832 ft | 484 kts | 124° |
| 2026-05-07 01:05 | 16.01069 | 68.34888 | 40828 ft | 484 kts | 125° |
| 2026-05-07 01:05 | 15.97377 | 68.40730 | 40830 ft | 484 kts | 124° |
| 2026-05-07 01:06 | 15.93682 | 68.46571 | 40829 ft | 484 kts | 125° |
| 2026-05-07 01:06 | 15.90012 | 68.52366 | 40828 ft | 483 kts | 124° |
| 2026-05-07 01:07 | 15.86318 | 68.58195 | 40832 ft | 483 kts | 124° |
| 2026-05-07 01:07 | 15.82622 | 68.64022 | 40832 ft | 483 kts | 124° |
| 2026-05-07 01:08 | 15.78926 | 68.69846 | 40831 ft | 483 kts | 125° |
| 2026-05-07 01:08 | 15.75251 | 68.75629 | 40831 ft | 483 kts | 124° |
| 2026-05-07 01:09 | 15.71552 | 68.81448 | 40833 ft | 483 kts | 125° |
| 2026-05-07 01:09 | 15.67849 | 68.87265 | 40829 ft | 483 kts | 125° |
| 2026-05-07 01:10 | 15.64140 | 68.93088 | 40828 ft | 484 kts | 124° |
| 2026-05-07 01:10 | 15.60459 | 68.98870 | 40829 ft | 483 kts | 125° |
| 2026-05-07 01:11 | 15.56760 | 69.04678 | 40828 ft | 483 kts | 124° |
| 2026-05-07 01:11 | 15.53059 | 69.10480 | 40829 ft | 482 kts | 125° |
| 2026-05-07 01:12 | 15.49354 | 69.16279 | 40827 ft | 482 kts | 125° |
| 2026-05-07 01:12 | 15.45674 | 69.22034 | 40830 ft | 482 kts | 125° |
| 2026-05-07 01:13 | 15.41962 | 69.27838 | 40829 ft | 483 kts | 125° |
| 2026-05-07 01:13 | 15.38249 | 69.33640 | 40829 ft | 483 kts | 125° |
| 2026-05-07 01:14 | 15.34537 | 69.39440 | 40829 ft | 483 kts | 125° |
| 2026-05-07 01:14 | 15.30828 | 69.45230 | 40827 ft | 481 kts | 125° |
| 2026-05-07 01:15 | 15.27152 | 69.50963 | 40829 ft | 481 kts | 125° |
| 2026-05-07 01:15 | 15.23446 | 69.56735 | 40829 ft | 481 kts | 125° |
| 2026-05-07 01:16 | 15.19739 | 69.62504 | 40827 ft | 481 kts | 125° |
| 2026-05-07 01:16 | 15.16030 | 69.68274 | 40827 ft | 481 kts | 125° |
| 2026-05-07 01:17 | 15.12344 | 69.74004 | 40827 ft | 481 kts | 125° |
| 2026-05-07 01:17 | 15.08651 | 69.79788 | 40821 ft | 481 kts | 125° |
| 2026-05-07 01:18 | 15.04985 | 69.85579 | 40823 ft | 481 kts | 124° |
| 2026-05-07 01:18 | 15.01348 | 69.91323 | 40824 ft | 480 kts | 125° |
| 2026-05-07 01:19 | 14.97695 | 69.97079 | 40815 ft | 479 kts | 124° |
| 2026-05-07 01:19 | 14.94035 | 70.02842 | 40819 ft | 479 kts | 125° |
| 2026-05-07 01:20 | 14.90376 | 70.08598 | 40818 ft | 479 kts | 124° |
| 2026-05-07 01:20 | 14.86708 | 70.14357 | 40817 ft | 480 kts | 125° |
| 2026-05-07 01:21 | 14.83065 | 70.20073 | 40823 ft | 479 kts | 125° |
| 2026-05-07 01:21 | 14.79394 | 70.25824 | 40814 ft | 480 kts | 125° |
| 2026-05-07 01:22 | 14.75717 | 70.31579 | 40815 ft | 480 kts | 125° |
| 2026-05-07 01:22 | 14.72065 | 70.37295 | 40815 ft | 480 kts | 124° |
| 2026-05-07 01:23 | 14.68392 | 70.43036 | 40818 ft | 479 kts | 125° |
| 2026-05-07 01:23 | 14.64717 | 70.48782 | 40816 ft | 480 kts | 125° |
| 2026-05-07 01:24 | 14.61042 | 70.54526 | 40816 ft | 479 kts | 124° |
| 2026-05-07 01:24 | 14.57367 | 70.60262 | 40817 ft | 480 kts | 125° |
| 2026-05-07 01:25 | 14.53708 | 70.65970 | 40814 ft | 479 kts | 125° |
| 2026-05-07 01:25 | 14.50026 | 70.71708 | 40820 ft | 480 kts | 124° |
| 2026-05-07 01:26 | 14.46338 | 70.77454 | 40818 ft | 480 kts | 125° |
| 2026-05-07 01:26 | 14.42654 | 70.83188 | 40820 ft | 480 kts | 124° |
| 2026-05-07 01:27 | 14.38988 | 70.88892 | 40818 ft | 480 kts | 125° |
| 2026-05-07 01:27 | 14.35301 | 70.94624 | 40819 ft | 480 kts | 124° |
| 2026-05-07 01:28 | 14.31637 | 71.00380 | 40817 ft | 480 kts | 125° |
| 2026-05-07 01:28 | 14.28005 | 71.06153 | 40817 ft | 480 kts | 124° |
| 2026-05-07 01:29 | 14.24392 | 71.11886 | 40822 ft | 480 kts | 124° |
| 2026-05-07 01:29 | 14.20749 | 71.17648 | 40821 ft | 480 kts | 124° |
| 2026-05-07 01:30 | 14.17100 | 71.23414 | 40822 ft | 480 kts | 125° |
| 2026-05-07 01:30 | 14.13460 | 71.29160 | 40822 ft | 478 kts | 124° |
| 2026-05-07 01:31 | 14.09852 | 71.34852 | 40820 ft | 478 kts | 124° |
| 2026-05-07 01:31 | 14.06223 | 71.40573 | 40822 ft | 477 kts | 124° |
| 2026-05-07 01:32 | 14.02587 | 71.46297 | 40822 ft | 478 kts | 124° |
| 2026-05-07 01:32 | 13.98977 | 71.51979 | 40823 ft | 477 kts | 125° |
| 2026-05-07 01:33 | 13.95340 | 71.57702 | 40821 ft | 478 kts | 125° |
| 2026-05-07 01:33 | 13.91698 | 71.63429 | 40821 ft | 478 kts | 124° |
| 2026-05-07 01:34 | 13.88050 | 71.69159 | 40827 ft | 479 kts | 125° |
| 2026-05-07 01:34 | 13.84405 | 71.74883 | 40823 ft | 477 kts | 125° |
| 2026-05-07 01:35 | 13.80797 | 71.80541 | 40820 ft | 477 kts | 124° |
| 2026-05-07 01:35 | 13.77163 | 71.86240 | 40824 ft | 476 kts | 125° |
| 2026-05-07 01:36 | 13.73529 | 71.91934 | 40827 ft | 476 kts | 124° |
| 2026-05-07 01:36 | 13.69907 | 71.97601 | 40824 ft | 478 kts | 125° |
| 2026-05-07 01:37 | 13.65937 | 72.03065 | 40826 ft | 477 kts | 130° |
| 2026-05-07 01:37 | 13.61775 | 72.08377 | 40826 ft | 477 kts | 130° |
| 2026-05-07 01:38 | 13.57587 | 72.13661 | 40830 ft | 476 kts | 130° |
| 2026-05-07 01:38 | 13.53427 | 72.18904 | 40833 ft | 477 kts | 130° |
| 2026-05-07 01:39 | 13.49242 | 72.24188 | 40832 ft | 476 kts | 130° |
| 2026-05-07 01:39 | 13.45063 | 72.29468 | 40834 ft | 477 kts | 130° |
| 2026-05-07 01:40 | 13.40862 | 72.34771 | 40828 ft | 479 kts | 130° |
| 2026-05-07 01:40 | 13.36688 | 72.40036 | 40833 ft | 479 kts | 130° |
| 2026-05-07 01:41 | 13.32480 | 72.45341 | 40834 ft | 479 kts | 130° |
| 2026-05-07 01:41 | 13.28268 | 72.50649 | 40835 ft | 479 kts | 131° |
| 2026-05-07 01:42 | 13.24064 | 72.55943 | 40836 ft | 479 kts | 130° |
| 2026-05-07 01:42 | 13.19860 | 72.61234 | 40836 ft | 477 kts | 130° |
| 2026-05-07 01:43 | 13.15692 | 72.66475 | 40836 ft | 477 kts | 130° |
| 2026-05-07 01:43 | 13.11495 | 72.71752 | 40834 ft | 478 kts | 130° |
| 2026-05-07 01:44 | 13.07290 | 72.77035 | 40834 ft | 478 kts | 130° |
| 2026-05-07 01:44 | 13.03088 | 72.82311 | 40838 ft | 477 kts | 130° |
| 2026-05-07 01:45 | 12.98885 | 72.87585 | 40838 ft | 478 kts | 130° |
| 2026-05-07 01:45 | 12.94707 | 72.92825 | 40836 ft | 477 kts | 130° |
| 2026-05-07 01:46 | 12.90504 | 72.98093 | 40835 ft | 478 kts | 130° |
| 2026-05-07 01:46 | 12.86299 | 73.03359 | 40837 ft | 477 kts | 130° |
| 2026-05-07 01:47 | 12.82098 | 73.08616 | 40834 ft | 477 kts | 130° |
| 2026-05-07 01:47 | 12.77925 | 73.13838 | 40832 ft | 477 kts | 130° |
| 2026-05-07 01:48 | 12.73723 | 73.19092 | 40838 ft | 477 kts | 130° |
| 2026-05-07 01:48 | 12.69521 | 73.24345 | 40840 ft | 477 kts | 130° |
| 2026-05-07 01:49 | 12.65319 | 73.29593 | 40834 ft | 477 kts | 130° |
| 2026-05-07 01:49 | 12.61107 | 73.34851 | 40837 ft | 478 kts | 130° |
| 2026-05-07 01:50 | 12.56919 | 73.40074 | 40834 ft | 477 kts | 130° |
| 2026-05-07 01:50 | 12.52721 | 73.45310 | 40836 ft | 475 kts | 130° |
| 2026-05-07 01:51 | 12.48532 | 73.50530 | 40836 ft | 475 kts | 130° |
| 2026-05-07 01:51 | 12.44340 | 73.55750 | 40836 ft | 475 kts | 130° |
| 2026-05-07 01:52 | 12.40175 | 73.60934 | 40844 ft | 475 kts | 130° |
| 2026-05-07 01:52 | 12.35980 | 73.66152 | 40831 ft | 475 kts | 130° |
| 2026-05-07 01:53 | 12.31778 | 73.71375 | 40834 ft | 476 kts | 130° |
| 2026-05-07 01:53 | 12.27568 | 73.76607 | 40838 ft | 476 kts | 130° |
| 2026-05-07 01:54 | 12.23360 | 73.81833 | 40837 ft | 476 kts | 130° |
| 2026-05-07 01:54 | 12.19182 | 73.87019 | 40833 ft | 475 kts | 130° |
| 2026-05-07 01:55 | 12.14977 | 73.92237 | 40836 ft | 475 kts | 130° |
| 2026-05-07 01:55 | 12.10770 | 73.97453 | 40839 ft | 475 kts | 130° |
| 2026-05-07 01:56 | 12.06563 | 74.02667 | 40836 ft | 476 kts | 130° |
| 2026-05-07 01:56 | 12.02370 | 74.07860 | 40840 ft | 478 kts | 130° |
| 2026-05-07 01:57 | 11.98140 | 74.13096 | 40843 ft | 478 kts | 130° |
| 2026-05-07 01:57 | 11.93910 | 74.18329 | 40843 ft | 478 kts | 130° |
| 2026-05-07 01:58 | 11.89677 | 74.23563 | 40843 ft | 478 kts | 130° |
| 2026-05-07 01:58 | 11.85471 | 74.28761 | 40840 ft | 478 kts | 130° |
| 2026-05-07 01:59 | 11.81237 | 74.33991 | 40840 ft | 478 kts | 130° |
| 2026-05-07 01:59 | 11.77003 | 74.39218 | 40842 ft | 478 kts | 130° |
| 2026-05-07 02:00 | 11.72761 | 74.44451 | 40844 ft | 479 kts | 130° |
| 2026-05-07 02:00 | 11.68516 | 74.49687 | 40846 ft | 478 kts | 130° |
| 2026-05-07 02:01 | 11.64302 | 74.54881 | 40846 ft | 478 kts | 130° |
| 2026-05-07 02:01 | 11.60056 | 74.60110 | 40845 ft | 478 kts | 130° |
| 2026-05-07 02:02 | 11.55816 | 74.65332 | 40846 ft | 478 kts | 130° |
| 2026-05-07 02:02 | 11.51575 | 74.70552 | 40845 ft | 478 kts | 130° |
| 2026-05-07 02:03 | 11.47363 | 74.75733 | 40844 ft | 478 kts | 130° |
| 2026-05-07 02:03 | 11.43123 | 74.80945 | 40846 ft | 478 kts | 130° |
| 2026-05-07 02:04 | 11.38879 | 74.86160 | 40846 ft | 478 kts | 130° |
| 2026-05-07 02:04 | 11.34635 | 74.91372 | 40846 ft | 478 kts | 130° |
| 2026-05-07 02:05 | 11.30420 | 74.96548 | 40844 ft | 478 kts | 130° |
| 2026-05-07 02:05 | 11.26174 | 75.01756 | 40846 ft | 478 kts | 130° |
| 2026-05-07 02:06 | 11.21928 | 75.06962 | 40843 ft | 478 kts | 130° |
| 2026-05-07 02:06 | 11.17671 | 75.12180 | 40844 ft | 479 kts | 130° |
| 2026-05-07 02:07 | 11.13438 | 75.17365 | 40846 ft | 479 kts | 130° |
| 2026-05-07 02:07 | 11.07038 | 75.25198 | 40852 ft | 480 kts | 130° |
| 2026-05-07 02:08 | 11.02772 | 75.30417 | 40851 ft | 480 kts | 130° |
| 2026-05-07 02:08 | 10.98533 | 75.35601 | 40853 ft | 480 kts | 130° |
| 2026-05-07 02:09 | 10.94264 | 75.40818 | 40849 ft | 479 kts | 130° |
| 2026-05-07 02:09 | 10.90004 | 75.46023 | 40852 ft | 479 kts | 130° |
| 2026-05-07 02:10 | 10.85733 | 75.51238 | 40859 ft | 480 kts | 130° |
| 2026-05-07 02:10 | 10.81464 | 75.56448 | 40850 ft | 480 kts | 130° |
| 2026-05-07 02:11 | 10.77219 | 75.61626 | 40850 ft | 480 kts | 130° |
| 2026-05-07 02:11 | 10.72943 | 75.66837 | 40858 ft | 480 kts | 130° |
| 2026-05-07 02:12 | 10.68669 | 75.72045 | 40856 ft | 480 kts | 130° |
| 2026-05-07 02:12 | 10.64388 | 75.77258 | 40853 ft | 480 kts | 130° |
| 2026-05-07 02:13 | 10.60139 | 75.82435 | 40858 ft | 481 kts | 130° |
| 2026-05-07 02:13 | 10.55846 | 75.87657 | 40855 ft | 481 kts | 130° |
| 2026-05-07 02:14 | 10.51555 | 75.92875 | 40860 ft | 481 kts | 130° |
| 2026-05-07 02:14 | 10.47264 | 75.98090 | 40860 ft | 481 kts | 130° |
| 2026-05-07 02:15 | 10.42999 | 76.03273 | 40858 ft | 481 kts | 130° |
| 2026-05-07 02:15 | 10.38709 | 76.08485 | 40853 ft | 481 kts | 130° |
| 2026-05-07 02:16 | 10.34414 | 76.13699 | 40858 ft | 481 kts | 130° |
| 2026-05-07 02:16 | 10.30123 | 76.18908 | 40865 ft | 479 kts | 131° |
| 2026-05-07 02:17 | 10.25879 | 76.24054 | 40872 ft | 478 kts | 131° |
| 2026-05-07 02:17 | 10.21625 | 76.29212 | 40880 ft | 476 kts | 131° |
| 2026-05-07 02:18 | 10.17376 | 76.34361 | 40885 ft | 476 kts | 131° |
| 2026-05-07 02:18 | 10.13124 | 76.39508 | 40884 ft | 476 kts | 131° |
| 2026-05-07 02:19 | 10.08862 | 76.44639 | 40883 ft | 476 kts | 131° |
| 2026-05-07 02:19 | 10.04622 | 76.49733 | 40879 ft | 476 kts | 131° |
| 2026-05-07 02:20 | 10.00360 | 76.54859 | 40875 ft | 474 kts | 131° |
| 2026-05-07 02:20 | 9.96116 | 76.59966 | 40866 ft | 473 kts | 131° |
| 2026-05-07 02:21 | 9.91869 | 76.65073 | 40879 ft | 473 kts | 131° |
| 2026-05-07 02:21 | 9.87662 | 76.70130 | 40877 ft | 472 kts | 131° |
| 2026-05-07 02:22 | 9.83429 | 76.75212 | 40871 ft | 472 kts | 131° |
| 2026-05-07 02:22 | 9.79191 | 76.80298 | 40890 ft | 472 kts | 131° |
| 2026-05-07 02:23 | 9.74954 | 76.85375 | 40888 ft | 472 kts | 131° |
| 2026-05-07 02:23 | 9.70739 | 76.90426 | 40881 ft | 473 kts | 131° |
| 2026-05-07 02:24 | 9.66488 | 76.95524 | 40901 ft | 474 kts | 131° |
| 2026-05-07 02:24 | 9.62234 | 77.00624 | 40901 ft | 474 kts | 131° |
| 2026-05-07 02:25 | 9.57983 | 77.05718 | 40892 ft | 474 kts | 131° |
| 2026-05-07 02:25 | 9.53721 | 77.10821 | 40902 ft | 475 kts | 131° |
| 2026-05-07 02:26 | 9.49480 | 77.15895 | 40905 ft | 475 kts | 131° |
| 2026-05-07 02:26 | 9.45209 | 77.21003 | 40906 ft | 475 kts | 131° |
| 2026-05-07 02:27 | 9.40937 | 77.26111 | 40891 ft | 476 kts | 130° |
| 2026-05-07 02:27 | 9.36654 | 77.31231 | 40891 ft | 477 kts | 130° |
| 2026-05-07 02:28 | 9.32396 | 77.36316 | 40894 ft | 477 kts | 130° |
| 2026-05-07 02:28 | 9.28103 | 77.41441 | 40877 ft | 477 kts | 130° |
| 2026-05-07 02:29 | 9.23813 | 77.46559 | 40876 ft | 477 kts | 130° |
| 2026-05-07 02:29 | 9.19526 | 77.51673 | 40876 ft | 476 kts | 130° |
| 2026-05-07 02:30 | 9.15274 | 77.56752 | 40861 ft | 476 kts | 130° |
| 2026-05-07 02:30 | 9.10992 | 77.61867 | 40860 ft | 476 kts | 130° |
| 2026-05-07 02:31 | 9.06701 | 77.66982 | 40854 ft | 477 kts | 130° |
| 2026-05-07 02:31 | 9.02404 | 77.72101 | 40854 ft | 477 kts | 130° |
| 2026-05-07 02:32 | 8.98134 | 77.77185 | 40856 ft | 477 kts | 130° |
| 2026-05-07 02:32 | 8.93837 | 77.82299 | 40852 ft | 477 kts | 130° |
| 2026-05-07 02:33 | 8.89538 | 77.87413 | 40854 ft | 477 kts | 130° |
| 2026-05-07 02:33 | 8.85238 | 77.92526 | 40856 ft | 477 kts | 130° |
| 2026-05-07 02:34 | 8.80975 | 77.97595 | 40857 ft | 477 kts | 130° |
| 2026-05-07 02:34 | 8.76677 | 78.02701 | 40857 ft | 477 kts | 130° |
| 2026-05-07 02:35 | 8.72378 | 78.07807 | 40856 ft | 477 kts | 130° |
| 2026-05-07 02:35 | 8.68076 | 78.12917 | 40856 ft | 477 kts | 130° |
| 2026-05-07 02:36 | 8.63775 | 78.18022 | 40853 ft | 477 kts | 130° |
| 2026-05-07 02:36 | 8.59501 | 78.23093 | 40851 ft | 477 kts | 130° |
| 2026-05-07 02:37 | 8.55196 | 78.28198 | 40849 ft | 477 kts | 130° |
| 2026-05-07 02:37 | 8.50891 | 78.33300 | 40852 ft | 477 kts | 130° |
| 2026-05-07 02:38 | 8.46595 | 78.38391 | 40296 ft | 475 kts | 130° |
| 2026-05-07 02:38 | 8.44476 | 78.40903 | 39505 ft | 478 kts | 130° |
| 2026-05-07 02:38 | 8.42309 | 78.43469 | 38661 ft | 483 kts | 130° |
| 2026-05-07 02:39 | 8.40124 | 78.46057 | 37820 ft | 485 kts | 130° |
| 2026-05-07 02:39 | 8.37936 | 78.48647 | 37101 ft | 484 kts | 130° |
| 2026-05-07 02:39 | 8.35750 | 78.51233 | 36401 ft | 484 kts | 130° |
| 2026-05-07 02:39 | 8.33564 | 78.53819 | 35679 ft | 484 kts | 130° |
| 2026-05-07 02:40 | 8.31374 | 78.56409 | 34943 ft | 486 kts | 130° |
| 2026-05-07 02:40 | 8.29180 | 78.59015 | 34115 ft | 489 kts | 129° |
| 2026-05-07 02:40 | 8.27114 | 78.61760 | 33140 ft | 493 kts | 126° |
| 2026-05-07 02:40 | 8.25146 | 78.64548 | 32225 ft | 496 kts | 125° |
| 2026-05-07 02:41 | 8.23152 | 78.67395 | 31309 ft | 498 kts | 125° |
| 2026-05-07 02:41 | 8.21148 | 78.70257 | 30355 ft | 501 kts | 125° |
| 2026-05-07 02:41 | 8.19125 | 78.73140 | 29267 ft | 505 kts | 125° |
| 2026-05-07 02:41 | 8.17092 | 78.76037 | 28354 ft | 504 kts | 125° |
| 2026-05-07 02:42 | 8.15080 | 78.78901 | 27666 ft | 498 kts | 125° |
| 2026-05-07 02:42 | 8.13085 | 78.81739 | 26957 ft | 493 kts | 125° |
| 2026-05-07 02:42 | 8.11108 | 78.84548 | 26258 ft | 489 kts | 125° |
| 2026-05-07 02:42 | 8.09148 | 78.87334 | 25545 ft | 485 kts | 125° |
| 2026-05-07 02:43 | 8.07229 | 78.90061 | 24846 ft | 481 kts | 126° |
| 2026-05-07 02:43 | 8.05300 | 78.92802 | 24144 ft | 478 kts | 126° |
| 2026-05-07 02:43 | 8.03384 | 78.95524 | 23450 ft | 474 kts | 126° |
| 2026-05-07 02:43 | 8.01482 | 78.98223 | 22668 ft | 470 kts | 126° |
| 2026-05-07 02:44 | 7.99600 | 79.00896 | 21959 ft | 464 kts | 126° |
| 2026-05-07 02:44 | 7.97744 | 79.03530 | 21271 ft | 458 kts | 126° |
| 2026-05-07 02:44 | 7.95910 | 79.06132 | 20592 ft | 452 kts | 125° |
| 2026-05-07 02:44 | 7.94098 | 79.08702 | 19895 ft | 447 kts | 125° |
| 2026-05-07 02:45 | 7.92330 | 79.11210 | 19213 ft | 442 kts | 125° |
| 2026-05-07 02:45 | 7.90557 | 79.13726 | 18518 ft | 438 kts | 125° |
| 2026-05-07 02:45 | 7.88799 | 79.16219 | 17785 ft | 434 kts | 125° |
| 2026-05-07 02:45 | 7.87063 | 79.18687 | 17044 ft | 429 kts | 125° |
| 2026-05-07 02:46 | 7.85342 | 79.21127 | 16332 ft | 424 kts | 125° |
| 2026-05-07 02:46 | 7.83644 | 79.23532 | 15647 ft | 419 kts | 125° |
| 2026-05-07 02:46 | 7.81962 | 79.25914 | 14948 ft | 414 kts | 125° |
| 2026-05-07 02:46 | 7.80329 | 79.28227 | 14278 ft | 397 kts | 125° |
| 2026-05-07 02:47 | 7.78756 | 79.30453 | 13624 ft | 384 kts | 125° |
| 2026-05-07 02:47 | 7.77206 | 79.32647 | 12909 ft | 384 kts | 125° |
| 2026-05-07 02:47 | 7.75681 | 79.34807 | 12246 ft | 382 kts | 125° |
| 2026-05-07 02:47 | 7.74144 | 79.36983 | 11592 ft | 380 kts | 125° |
| 2026-05-07 02:48 | 7.72614 | 79.39148 | 10938 ft | 378 kts | 125° |
| 2026-05-07 02:48 | 7.71113 | 79.41273 | 10680 ft | 363 kts | 125° |
| 2026-05-07 02:48 | 7.69684 | 79.43295 | 10580 ft | 345 kts | 125° |
| 2026-05-07 02:48 | 7.68329 | 79.45211 | 10474 ft | 327 kts | 125° |
| 2026-05-07 02:49 | 7.67041 | 79.47032 | 10369 ft | 311 kts | 125° |
| 2026-05-07 02:49 | 7.65814 | 79.48770 | 10272 ft | 297 kts | 125° |
| 2026-05-07 02:49 | 7.64658 | 79.50408 | 10163 ft | 285 kts | 125° |
| 2026-05-07 02:49 | 7.63529 | 79.52007 | 10058 ft | 275 kts | 125° |
| 2026-05-07 02:50 | 7.62422 | 79.53574 | 9850 ft | 279 kts | 125° |
| 2026-05-07 02:50 | 7.61261 | 79.55218 | 9739 ft | 294 kts | 125° |
| 2026-05-07 02:50 | 7.60082 | 79.56885 | 9346 ft | 292 kts | 125° |
| 2026-05-07 02:50 | 7.58899 | 79.58559 | 8836 ft | 293 kts | 125° |
| 2026-05-07 02:51 | 7.57719 | 79.60225 | 8473 ft | 291 kts | 125° |
| 2026-05-07 02:51 | 7.56546 | 79.61883 | 8138 ft | 290 kts | 125° |
| 2026-05-07 02:51 | 7.55395 | 79.63510 | 7808 ft | 288 kts | 126° |
| 2026-05-07 02:51 | 7.54234 | 79.65151 | 7469 ft | 287 kts | 126° |
| 2026-05-07 02:52 | 7.53077 | 79.66786 | 7139 ft | 286 kts | 126° |
| 2026-05-07 02:52 | 7.51927 | 79.68411 | 6809 ft | 284 kts | 126° |
| 2026-05-07 02:52 | 7.50782 | 79.70028 | 6477 ft | 283 kts | 126° |
| 2026-05-07 02:52 | 7.49643 | 79.71638 | 6148 ft | 281 kts | 126° |
| 2026-05-07 02:53 | 7.48510 | 79.73240 | 5806 ft | 280 kts | 126° |
| 2026-05-07 02:53 | 7.47381 | 79.74837 | 5447 ft | 279 kts | 127° |
| 2026-05-07 02:53 | 7.46271 | 79.76404 | 5143 ft | 278 kts | 127° |
| 2026-05-07 02:53 | 7.45164 | 79.77968 | 4952 ft | 269 kts | 127° |
| 2026-05-07 02:54 | 7.44088 | 79.79489 | 4704 ft | 265 kts | 127° |
| 2026-05-07 02:54 | 7.43022 | 79.80994 | 4390 ft | 263 kts | 127° |
| 2026-05-07 02:54 | 7.41961 | 79.82491 | 4077 ft | 262 kts | 127° |
| 2026-05-07 02:54 | 7.40905 | 79.83983 | 3851 ft | 261 kts | 127° |
| 2026-05-07 02:55 | 7.39848 | 79.85474 | 3682 ft | 261 kts | 127° |
| 2026-05-07 02:55 | 7.38794 | 79.86960 | 3514 ft | 261 kts | 127° |
| 2026-05-07 02:55 | 7.38097 | 79.87944 | 3399 ft | 260 kts | 127° |
| 2026-05-07 02:55 | 7.36705 | 79.89908 | 3184 ft | 258 kts | 127° |
| 2026-05-07 02:56 | 7.35684 | 79.91348 | 3034 ft | 248 kts | 127° |
| 2026-05-07 02:56 | 7.34662 | 79.92743 | 2839 ft | 247 kts | 129° |
| 2026-05-07 02:56 | 7.33613 | 79.94094 | 2700 ft | 241 kts | 130° |
| 2026-05-07 02:56 | 7.32592 | 79.95405 | 2552 ft | 234 kts | 129° |
| 2026-05-07 02:57 | 7.31494 | 79.96541 | 2435 ft | 220 kts | 153° |
| 2026-05-07 02:57 | 7.30558 | 79.96818 | 2372 ft | 207 kts | 181° |
| 2026-05-07 02:57 | 7.28904 | 79.96438 | 2277 ft | 191 kts | 203° |
| 2026-05-07 02:57 | 7.27743 | 79.95824 | 2043 ft | 189 kts | 221° |
| 2026-05-07 02:58 | 7.26755 | 79.94966 | 1788 ft | 186 kts | 217° |
| 2026-05-07 02:58 | 7.25728 | 79.94212 | 1562 ft | 179 kts | 217° |
| 2026-05-07 02:58 | 7.24768 | 79.93483 | 1328 ft | 168 kts | 218° |
| 2026-05-07 02:58 | 7.23847 | 79.92776 | 1113 ft | 164 kts | 218° |
| 2026-05-07 02:59 | 7.23256 | 79.92323 | 971 ft | 158 kts | 217° |
| 2026-05-07 02:59 | 7.22407 | 79.91672 | 779 ft | 148 kts | 217° |
| 2026-05-07 02:59 | 7.21622 | 79.91068 | 626 ft | 137 kts | 216° |
| 2026-05-07 02:59 | 7.20622 | 79.90298 | 386 ft | 138 kts | 216° |
| 2026-05-07 03:00 | 7.19858 | 79.89708 | 211 ft | 138 kts | 217° |
| 2026-05-07 03:00 | 7.19085 | 79.89124 | 41 ft | 137 kts | 214° |
| 2026-05-07 03:00 | 7.18620 | 79.88777 | 43 ft | 124 kts | 216° |
| 2026-05-07 03:00 | 7.18053 | 79.88342 | 42 ft | 82 kts | 217° |
| 2026-05-07 03:01 | 7.17717 | 79.88086 | 42 ft | 39 kts | 217° |
| 2026-05-07 03:01 | 7.17537 | 79.87958 | 42 ft | 22 kts | 191° |
| 2026-05-07 03:01 | 7.17437 | 79.88078 | 40 ft | 18 kts | 65° |
| 2026-05-07 03:01 | 7.17530 | 79.88166 | 40 ft | 20 kts | 37° |
| 2026-05-07 03:02 | 7.17645 | 79.88253 | 40 ft | 22 kts | 36° |
| 2026-05-07 03:02 | 7.17729 | 79.88316 | 40 ft | 23 kts | 37° |
| 2026-05-07 03:02 | 7.17832 | 79.88400 | 40 ft | 13 kts | 40° |
| 2026-05-07 03:02 | 7.17826 | 79.88473 | 40 ft | 11 kts | 147° |
| 2026-05-07 03:03 | 7.17764 | 79.88460 | 40 ft | 8 kts | 220° |
| 2026-05-07 03:03 | 7.17738 | 79.88438 | 40 ft | 0 kts | 219° |